Time;durP1;ratioP1;P1;durP2;ratioP2;P2;SDS_P1;SDS_P2;PMS_P1;PMS_P2;Temp;Humidity;BMP_temperature;BMP_pressure;BME280_temperature;BME280_humidity;BME280_pressure;Samples;Min_cycle;Max_cycle;Signal;HPM_P1;HPM_P2
2021/06/09 00:00:33;;;;;;;5.97;4.88;;;;;;;13.41;48.65;96070.88;5009820;28;20172;-61
2021/06/09 00:02:58;;;;;;;9.05;4.97;;;;;;;13.37;48.85;96073.13;5009565;28;20487;-61
2021/06/09 00:05:24;;;;;;;5.80;4.55;;;;;;;13.35;49.05;96075.13;5009869;28;20747;-60
2021/06/09 00:07:49;;;;;;;7.47;4.90;;;;;;;13.30;48.78;96078.34;5009451;28;20110;-60
2021/06/09 00:10:15;;;;;;;5.97;4.45;;;;;;;13.25;49.06;96079.91;5009387;28;20459;-61
2021/06/09 00:12:40;;;;;;;7.32;5.07;;;;;;;13.21;49.25;96079.47;5009847;28;20441;-61
2021/06/09 00:15:07;;;;;;;7.45;4.72;;;;;;;13.17;49.52;96070.16;5009468;28;20102;-60
2021/06/09 00:17:33;;;;;;;6.35;4.97;;;;;;;13.13;49.74;96080.38;5010051;28;20578;-61
2021/06/09 00:19:58;;;;;;;8.38;4.82;;;;;;;13.10;49.38;96072.72;5009229;28;20102;-60
2021/06/09 00:22:24;;;;;;;6.65;5.20;;;;;;;13.09;49.43;96071.06;5009270;28;20117;-61
2021/06/09 00:24:49;;;;;;;7.32;4.75;;;;;;;13.03;49.52;96067.25;5007849;28;20083;-61
2021/06/09 00:27:15;;;;;;;10.30;5.38;;;;;;;12.97;49.15;96073.31;5008182;28;20114;-60
2021/06/09 00:29:40;;;;;;;5.35;4.50;;;;;;;12.93;49.24;96072.84;5010148;28;20098;-61
2021/06/09 00:32:06;;;;;;;8.38;4.88;;;;;;;12.90;49.11;96070.56;5009373;28;20110;-61
2021/06/09 00:34:31;;;;;;;6.70;5.05;;;;;;;12.91;49.10;96074.88;5009403;28;20197;-60
2021/06/09 00:36:57;;;;;;;6.18;4.88;;;;;;;12.88;49.22;96067.22;5009613;28;20086;-61
2021/06/09 00:39:22;;;;;;;5.28;4.38;;;;;;;12.88;49.43;96079.75;5008524;28;20113;-61
2021/06/09 00:41:48;;;;;;;5.15;4.65;;;;;;;12.87;49.00;96084.28;5009505;28;20082;-61
2021/06/09 00:44:13;;;;;;;5.53;4.90;;;;;;;12.87;48.91;96078.94;5009110;28;20770;-61
2021/06/09 00:46:39;;;;;;;7.50;4.75;;;;;;;12.92;49.66;96073.06;5004319;28;20156;-61
2021/06/09 00:49:05;;;;;;;6.90;4.78;;;;;;;12.95;49.04;96075.34;5009198;28;20217;-63
2021/06/09 00:51:31;;;;;;;6.70;5.03;;;;;;;12.96;49.11;96070.84;5008729;28;20209;-61
2021/06/09 00:54:06;;;;;;;6.30;4.72;;;;;;;13.01;49.05;96079.16;5008936;28;20359;-61
2021/06/09 00:56:36;;;;;;;5.90;4.75;;;;;;;13.00;49.70;96078.34;5003659;28;20102;-61
2021/06/09 00:59:01;;;;;;;8.05;4.97;;;;;;;13.04;49.41;96078.78;5008993;28;20165;-61
2021/06/09 01:01:28;;;;;;;7.88;5.70;;;;;;;13.08;49.81;96072.06;5023825;28;20090;-61
2021/06/09 01:03:53;;;;;;;6.75;4.57;;;;;;;13.12;49.97;96075.22;5009161;28;20106;-60
2021/06/09 01:06:19;;;;;;;8.20;5.05;;;;;;;13.17;49.39;96070.16;5010681;28;20153;-61
2021/06/09 01:08:45;;;;;;;6.63;5.43;;;;;;;13.21;49.28;96076.78;5009381;28;20539;-63
2021/06/09 01:11:15;;;;;;;5.97;4.80;;;;;;;13.22;49.19;96074.97;5007972;28;20110;-61
2021/06/09 01:13:41;;;;;;;6.55;4.97;;;;;;;13.26;49.35;96077.06;5004970;28;20471;-60
2021/06/09 01:16:06;;;;;;;5.85;4.93;;;;;;;13.31;49.12;96079.19;5022381;28;20121;-61
2021/06/09 01:18:31;;;;;;;7.65;5.00;;;;;;;13.31;49.18;96076.50;5008797;28;20548;-61
2021/06/09 01:20:58;;;;;;;5.93;4.95;;;;;;;13.34;48.84;96076.16;5008579;28;20685;-61
2021/06/09 01:23:23;;;;;;;7.88;5.22;;;;;;;13.38;49.09;96074.78;5008990;28;20217;-61
2021/06/09 01:25:49;;;;;;;5.82;4.70;;;;;;;13.41;48.80;96079.75;5008386;28;20086;-61
2021/06/09 01:28:14;;;;;;;7.25;5.63;;;;;;;13.49;48.82;96075.34;5008016;28;20106;-61
2021/06/09 01:30:40;;;;;;;7.60;5.18;;;;;;;13.56;48.72;96082.41;5008517;28;20110;-61
2021/06/09 01:33:06;;;;;;;6.53;4.70;;;;;;;13.56;48.79;96079.75;5008529;28;20078;-61
2021/06/09 01:35:31;;;;;;;7.45;5.28;;;;;;;13.66;48.45;96075.94;5008918;28;20117;-61
2021/06/09 01:37:57;;;;;;;9.80;4.68;;;;;;;13.76;48.40;96076.47;4997282;28;20074;-61
2021/06/09 01:40:24;;;;;;;6.90;5.35;;;;;;;13.81;48.30;96075.94;5008042;28;20106;-61
2021/06/09 01:42:50;;;;;;;6.80;5.00;;;;;;;13.91;48.27;96073.00;5008061;28;20547;-61
2021/06/09 01:45:23;;;;;;;7.93;5.70;;;;;;;13.94;48.83;96073.44;5005797;28;20114;-61
2021/06/09 01:47:50;;;;;;;6.57;5.28;;;;;;;14.04;48.13;96072.31;5008597;28;20102;-61
2021/06/09 01:50:15;;;;;;;6.38;4.97;;;;;;;14.06;48.26;96076.47;5008602;28;20527;-61
2021/06/09 01:52:41;;;;;;;6.05;5.25;;;;;;;14.11;48.18;96072.38;5008725;28;20117;-61
2021/06/09 01:55:08;;;;;;;6.25;5.25;;;;;;;14.12;48.34;96074.88;5007223;28;20563;-61
2021/06/09 01:57:33;;;;;;;6.57;5.18;;;;;;;14.12;48.13;96069.50;5007522;28;20250;-61
2021/06/09 02:00:00;;;;;;;6.95;5.40;;;;;;;14.11;48.25;96073.19;5008076;28;20110;-61
2021/06/09 02:02:25;;;;;;;6.15;5.03;;;;;;;14.07;48.17;96072.75;5007829;28;20151;-61
2021/06/09 02:04:51;;;;;;;8.13;5.10;;;;;;;14.05;48.44;96064.06;5008784;28;20067;-61
2021/06/09 02:07:16;;;;;;;7.65;5.63;;;;;;;14.05;48.15;96057.91;5014094;28;20559;-61
2021/06/09 02:09:41;;;;;;;5.93;5.03;;;;;;;14.06;48.26;96064.91;5012411;28;20093;-61
2021/06/09 02:12:08;;;;;;;6.95;5.70;;;;;;;14.04;48.30;96064.28;5009692;28;20102;-61
2021/06/09 02:14:34;;;;;;;6.40;5.40;;;;;;;13.97;48.24;96060.69;5010456;28;20089;-61
2021/06/09 02:16:59;;;;;;;6.65;4.93;;;;;;;13.90;48.38;96061.44;5011278;28;20082;-60
2021/06/09 02:19:25;;;;;;;6.70;4.88;;;;;;;13.84;48.19;96056.81;5010456;28;20558;-61
2021/06/09 02:21:51;;;;;;;7.15;5.57;;;;;;;13.75;48.40;96053.44;5010517;28;20511;-61
2021/06/09 02:24:16;;;;;;;7.38;5.35;;;;;;;13.68;48.42;96056.03;5011823;28;20102;-61
2021/06/09 02:26:42;;;;;;;7.75;6.10;;;;;;;13.65;48.43;96058.22;5011490;28;20106;-61
2021/06/09 02:29:08;;;;;;;10.07;6.22;;;;;;;13.58;48.44;96058.16;5004722;28;20442;-61
2021/06/09 02:31:35;;;;;;;8.65;5.68;;;;;;;13.50;48.48;96060.94;5010971;28;20106;-61
2021/06/09 02:34:01;;;;;;;9.50;6.72;;;;;;;13.38;48.91;96050.69;5010795;28;20087;-61
2021/06/09 02:36:26;;;;;;;10.20;6.80;;;;;;;13.32;48.47;96054.09;5010105;28;20494;-61
2021/06/09 02:38:52;;;;;;;11.15;7.13;;;;;;;13.33;48.68;96050.44;5008594;28;20184;-61
2021/06/09 02:41:17;;;;;;;8.75;6.25;;;;;;;13.18;49.71;96058.44;5010456;28;20105;-61
2021/06/09 02:43:43;;;;;;;8.45;6.38;;;;;;;13.08;49.75;96049.88;5025739;28;20149;-61
2021/06/09 02:46:13;;;;;;;10.75;7.43;;;;;;;13.05;49.91;96048.38;5011724;28;20114;-61
2021/06/09 02:48:42;;;;;;;8.40;6.95;;;;;;;13.10;49.99;96055.84;5010875;28;20118;-61
2021/06/09 02:51:07;;;;;;;8.43;6.28;;;;;;;13.10;49.81;96050.50;5025725;28;20203;-60
2021/06/09 02:53:38;;;;;;;7.75;6.28;;;;;;;13.10;49.63;96051.34;5011526;28;20090;-60
2021/06/09 02:56:33;;;;;;;8.27;6.22;;;;;;;13.07;49.34;96054.38;5009761;28;20106;-61
2021/06/09 02:59:04;;;;;;;8.25;5.82;;;;;;;13.02;49.69;96051.44;5004842;28;20112;-60
2021/06/09 03:01:40;;;;;;;8.77;6.25;;;;;;;12.97;49.83;96059.13;5010821;28;20102;-61
2021/06/09 03:04:12;;;;;;;8.27;6.00;;;;;;;12.93;49.80;96056.81;4987593;28;20118;-61
2021/06/09 03:06:37;;;;;;;7.28;5.57;;;;;;;12.92;49.62;96060.50;5010877;28;20099;-61
2021/06/09 03:09:18;;;;;;;9.97;5.97;;;;;;;12.88;49.34;96058.38;5011448;28;20086;-61
2021/06/09 03:12:11;;;;;;;6.80;5.57;;;;;;;12.86;49.49;96055.06;5010404;28;20454;-61
2021/06/09 03:17:31;;;;;;;6.65;5.07;;;;;;;12.62;50.27;96046.28;5010647;28;20101;-61
2021/06/09 03:20:30;;;;;;;6.82;5.65;;;;;;;12.59;50.21;96055.47;5006650;28;20098;-61
2021/06/09 03:23:12;;;;;;;7.78;5.32;;;;;;;12.55;49.56;96051.50;5005415;28;20111;-61
2021/06/09 03:25:52;;;;;;;8.32;4.90;;;;;;;12.50;49.70;96051.19;5004412;28;20172;-60
2021/06/09 03:28:45;;;;;;;8.80;5.60;;;;;;;12.50;49.96;96053.88;5009113;28;20110;-61
2021/06/09 03:31:14;;;;;;;7.53;5.05;;;;;;;12.49;50.17;96054.88;4996310;28;20609;-61
2021/06/09 03:33:44;;;;;;;7.15;5.43;;;;;;;12.45;50.42;96049.09;5001805;28;20078;-61
2021/06/09 03:36:24;;;;;;;6.03;4.82;;;;;;;12.43;50.33;96056.44;5007503;28;20105;-61
2021/06/09 03:39:09;;;;;;;8.35;5.35;;;;;;;12.39;50.52;96052.47;5008608;28;20116;-64
2021/06/09 03:41:39;;;;;;;7.45;5.53;;;;;;;12.42;50.73;96060.94;5018160;28;20098;-61
2021/06/09 03:44:05;;;;;;;6.70;5.38;;;;;;;12.44;50.73;96058.09;5010338;28;20751;-61
2021/06/09 03:46:31;;;;;;;8.60;5.90;;;;;;;12.45;50.91;96061.59;5018483;28;20074;-61
2021/06/09 03:48:57;;;;;;;6.97;5.43;;;;;;;12.48;50.83;96058.56;5005522;28;20148;-61
2021/06/09 03:51:24;;;;;;;8.15;5.50;;;;;;;12.53;50.64;96058.84;5004918;28;20201;-60
2021/06/09 03:53:50;;;;;;;8.20;5.30;;;;;;;12.57;50.25;96057.47;4998506;28;20558;-61
2021/06/09 03:56:15;;;;;;;6.07;5.47;;;;;;;12.60;50.27;96064.31;5003362;28;20114;-61
2021/06/09 03:58:41;;;;;;;8.88;5.38;;;;;;;12.62;50.13;96060.44;4988536;28;20109;-61
2021/06/09 04:01:07;;;;;;;10.18;5.93;;;;;;;12.66;49.84;96063.59;5005254;28;20101;-61
2021/06/09 04:03:33;;;;;;;6.07;5.10;;;;;;;12.72;49.89;96064.72;4988278;28;20102;-60
2021/06/09 04:06:00;;;;;;;7.55;5.35;;;;;;;12.76;50.06;96055.31;4981744;28;20622;-61
2021/06/09 04:08:25;;;;;;;7.45;4.75;;;;;;;12.79;49.75;96057.63;4986208;28;20189;-61
2021/06/09 04:10:51;;;;;;;6.68;5.28;;;;;;;12.83;49.72;96058.94;4997896;28;20563;-61
2021/06/09 04:13:16;;;;;;;6.60;5.80;;;;;;;12.88;49.86;96056.53;5001738;28;20083;-61
2021/06/09 04:15:42;;;;;;;8.05;5.88;;;;;;;12.90;49.57;96046.50;5001236;28;20397;-60
2021/06/09 04:18:08;;;;;;;8.55;5.35;;;;;;;12.92;49.47;96049.00;5002085;28;20082;-60
2021/06/09 04:20:33;;;;;;;7.30;5.72;;;;;;;12.88;50.21;96048.53;5000196;28;20098;-60
2021/06/09 04:22:59;;;;;;;6.90;5.75;;;;;;;12.67;51.17;96049.22;5014306;28;20106;-61
2021/06/09 04:25:25;;;;;;;6.65;5.53;;;;;;;12.65;51.35;96049.41;4999889;28;20176;-61
2021/06/09 04:27:50;;;;;;;8.50;6.90;;;;;;;12.70;51.45;96045.34;5001530;28;20113;-61
2021/06/09 04:30:16;;;;;;;10.27;7.20;;;;;;;12.76;50.80;96050.81;4984568;28;20406;-61
2021/06/09 04:32:55;;;;;;;9.48;7.65;;;;;;;12.88;50.40;96047.69;5002706;28;20113;-61
2021/06/09 04:35:27;;;;;;;10.88;7.50;;;;;;;12.95;50.24;96039.78;5002188;28;20141;-60
2021/06/09 04:37:53;;;;;;;9.77;7.75;;;;;;;13.05;49.85;96037.69;5003720;28;20475;-60
2021/06/09 04:40:23;;;;;;;10.80;8.13;;;;;;;13.15;49.82;96038.25;5000564;28;20576;-61
2021/06/09 04:42:49;;;;;;;10.95;8.40;;;;;;;13.23;49.43;96047.19;5001421;28;20110;-61
2021/06/09 04:45:15;;;;;;;12.52;9.05;;;;;;;13.30;49.53;96045.44;5001972;28;20903;-61
2021/06/09 04:47:40;;;;;;;11.25;9.18;;;;;;;13.37;49.11;96040.19;5017925;28;20186;-60
2021/06/09 04:50:07;;;;;;;10.82;9.02;;;;;;;13.50;48.86;96039.53;5002860;28;20110;-60
2021/06/09 04:52:32;;;;;;;13.60;9.25;;;;;;;13.60;48.54;96040.06;5015683;28;20114;-61
2021/06/09 04:54:57;;;;;;;12.15;8.93;;;;;;;13.73;48.25;96042.06;5002636;28;20645;-60
2021/06/09 04:57:23;;;;;;;10.27;8.40;;;;;;;13.85;48.04;96042.41;5001314;28;20086;-61
2021/06/09 04:59:48;;;;;;;10.02;8.00;;;;;;;13.99;47.67;96043.44;5001474;28;20106;-61
2021/06/09 05:02:14;;;;;;;9.32;7.78;;;;;;;14.16;47.46;96049.38;5001945;28;20985;-60
2021/06/09 05:04:39;;;;;;;9.25;7.85;;;;;;;14.29;47.16;96042.47;5001948;28;20113;-60
2021/06/09 05:07:05;;;;;;;9.23;7.30;;;;;;;14.45;46.71;96036.06;5003141;28;20117;-61
2021/06/09 05:09:30;;;;;;;9.98;7.20;;;;;;;14.61;46.45;96039.47;5002708;28;20102;-61
2021/06/09 05:12:27;;;;;;;8.95;7.35;;;;;;;14.74;46.40;96038.75;4979747;28;20121;-61
2021/06/09 05:15:06;;;;;;;8.23;6.88;;;;;;;14.91;46.35;96044.66;4990237;28;20116;-60
2021/06/09 05:17:47;;;;;;;9.88;7.10;;;;;;;15.10;46.51;96038.59;5001134;28;20648;-60
2021/06/09 05:20:28;;;;;;;9.38;6.78;;;;;;;15.28;45.82;96045.31;5004113;28;20124;-61
2021/06/09 05:22:53;;;;;;;11.10;7.20;;;;;;;15.45;45.56;96037.78;4985473;28;20106;-61
2021/06/09 05:25:19;;;;;;;10.17;7.77;;;;;;;15.55;47.61;96042.78;4998229;28;20087;-61
2021/06/09 05:27:44;;;;;;;7.68;6.75;;;;;;;15.67;44.99;96047.63;5001501;28;20365;-61
2021/06/09 05:30:10;;;;;;;8.30;6.97;;;;;;;15.86;45.03;96040.66;4995779;28;20097;-61
2021/06/09 05:32:36;;;;;;;9.32;7.10;;;;;;;16.12;45.61;96049.81;4999303;28;20103;-61
2021/06/09 05:35:02;;;;;;;8.98;7.00;;;;;;;16.30;43.74;96041.19;5002949;28;20121;-61
2021/06/09 05:37:27;;;;;;;8.35;6.90;;;;;;;16.55;43.13;96045.97;5016045;28;20086;-61
2021/06/09 05:39:57;;;;;;;8.20;7.22;;;;;;;16.80;43.53;96044.53;4998837;28;20106;-61
2021/06/09 05:42:23;;;;;;;9.05;7.47;;;;;;;17.08;44.22;96051.53;4996002;28;20133;-61
2021/06/09 05:44:48;;;;;;;9.23;7.05;;;;;;;17.11;45.44;96056.50;5008931;28;20121;-60
2021/06/09 05:47:14;;;;;;;9.52;7.25;;;;;;;16.61;46.95;96047.84;5006709;28;20863;-60
2021/06/09 05:49:40;;;;;;;9.13;7.57;;;;;;;16.43;46.68;96045.78;5009053;28;20091;-60
2021/06/09 05:52:05;;;;;;;10.00;7.90;;;;;;;16.34;47.23;96053.16;5007378;28;20567;-60
2021/06/09 05:54:35;;;;;;;10.65;8.10;;;;;;;16.45;47.21;96051.75;5008792;28;20242;-61
2021/06/09 05:57:02;;;;;;;10.00;7.72;;;;;;;16.54;46.34;96048.88;5008404;28;20173;-61
2021/06/09 05:59:28;;;;;;;13.47;8.83;;;;;;;16.46;45.92;96053.41;5008307;28;20148;-61
2021/06/09 06:01:53;;;;;;;11.98;8.48;;;;;;;16.60;45.49;96056.13;5022067;28;20848;-61
2021/06/09 06:04:19;;;;;;;11.45;8.35;;;;;;;16.94;45.04;96062.31;5007332;28;20114;-61
2021/06/09 06:06:47;;;;;;;14.38;9.73;;;;;;;16.88;45.76;96058.59;4993211;28;20551;-61
2021/06/09 06:09:12;;;;;;;13.93;8.85;;;;;;;17.10;43.78;96054.84;5023605;28;20121;-61
2021/06/09 06:11:38;;;;;;;13.40;9.30;;;;;;;16.99;43.58;96061.69;5007847;28;20102;-62
2021/06/09 06:14:05;;;;;;;11.15;9.25;;;;;;;17.28;43.50;96065.81;4990753;28;20422;-61
2021/06/09 06:16:31;;;;;;;14.80;9.88;;;;;;;17.21;43.11;96059.63;5008046;28;20102;-61
2021/06/09 06:18:56;;;;;;;12.32;8.88;;;;;;;17.08;45.40;96070.38;5005758;28;20117;-61
2021/06/09 06:21:22;;;;;;;13.18;10.35;;;;;;;16.92;46.68;96075.13;5007360;28;20451;-61
2021/06/09 06:23:47;;;;;;;14.30;10.40;;;;;;;16.76;45.58;96076.41;5007690;28;20137;-61
2021/06/09 06:26:17;;;;;;;16.63;11.55;;;;;;;16.70;45.34;96071.84;5006966;28;20070;-60
2021/06/09 06:28:43;;;;;;;14.35;11.95;;;;;;;16.80;44.60;96066.88;5007523;28;20117;-61
2021/06/09 06:31:16;;;;;;;12.30;10.50;;;;;;;16.98;44.17;96066.25;5000707;28;20168;-60
2021/06/09 06:33:42;;;;;;;15.27;11.30;;;;;;;17.09;44.79;96064.78;4988178;28;20506;-61
2021/06/09 06:36:08;;;;;;;13.80;11.35;;;;;;;17.19;44.55;96058.16;5018309;28;20108;-61
2021/06/09 06:38:36;;;;;;;16.83;11.15;;;;;;;17.37;43.81;96066.41;4999682;28;20301;-61
2021/06/09 06:41:05;;;;;;;18.10;12.15;;;;;;;17.65;42.50;96067.97;5001420;28;20169;-61
2021/06/09 06:43:31;;;;;;;15.27;11.90;;;;;;;17.83;41.25;96069.16;5003949;28;20204;-60
2021/06/09 06:45:56;;;;;;;19.92;11.07;;;;;;;17.76;41.02;96069.19;5007044;28;20583;-60
2021/06/09 06:48:22;;;;;;;12.45;9.80;;;;;;;17.85;42.61;96066.25;5003667;28;20114;-61
2021/06/09 06:50:48;;;;;;;20.20;13.45;;;;;;;17.92;41.03;96059.81;5005176;28;20534;-60
2021/06/09 06:53:13;;;;;;;17.27;10.88;;;;;;;17.91;41.51;96060.03;5005109;28;20077;-61
2021/06/09 06:55:38;;;;;;;15.45;10.18;;;;;;;17.95;41.08;96058.56;4993350;28;20257;-61
2021/06/09 06:58:04;;;;;;;11.98;10.38;;;;;;;18.07;41.21;96055.19;5005707;28;20081;-60
2021/06/09 07:00:30;;;;;;;13.82;9.57;;;;;;;18.25;40.39;96058.00;5007160;28;20471;-62
2021/06/09 07:02:56;;;;;;;11.98;9.98;;;;;;;18.38;39.58;96059.78;5004747;28;20204;-61
2021/06/09 07:05:27;;;;;;;17.90;14.35;;;;;;;17.83;40.69;96065.63;5007748;28;20081;-61
2021/06/09 07:07:55;;;;;;;13.90;8.90;;;;;;;18.28;39.68;96060.25;5003663;28;20102;-61
2021/06/09 07:10:20;;;;;;;14.85;11.43;;;;;;;18.62;39.21;96064.63;5006276;28;20107;-64
2021/06/09 07:12:46;;;;;;;12.38;9.45;;;;;;;18.79;38.97;96062.22;4990208;28;20545;-61
2021/06/09 07:15:13;;;;;;;11.38;8.77;;;;;;;18.44;39.91;96071.56;4985755;28;20102;-61
2021/06/09 07:17:40;;;;;;;11.73;8.93;;;;;;;18.35;40.23;96075.59;5007608;28;20070;-61
2021/06/09 07:20:08;;;;;;;11.52;9.35;;;;;;;18.39;39.64;96068.72;5006265;28;20728;-61
2021/06/09 07:22:33;;;;;;;14.77;8.90;;;;;;;18.51;40.11;96066.13;5006571;28;20093;-64
2021/06/09 07:24:58;;;;;;;12.70;10.02;;;;;;;18.20;40.12;96074.00;5006453;28;20855;-61
2021/06/09 07:27:26;;;;;;;10.85;8.63;;;;;;;18.02;42.60;96072.03;5003053;28;20102;-61
2021/06/09 07:29:52;;;;;;;10.68;9.23;;;;;;;18.08;41.93;96073.84;5002852;28;20557;-60
2021/06/09 07:32:17;;;;;;;11.68;9.02;;;;;;;18.35;40.40;96065.59;5000390;28;20099;-60
2021/06/09 07:34:42;;;;;;;12.68;10.20;;;;;;;18.13;40.84;96075.91;5001677;28;20558;-60
2021/06/09 07:37:11;;;;;;;12.48;9.88;;;;;;;18.90;38.81;96072.28;5000544;28;20074;-60
2021/06/09 07:39:39;;;;;;;13.07;9.70;;;;;;;18.59;40.45;96078.56;5000188;28;20098;-61
2021/06/09 07:42:09;;;;;;;16.23;9.80;;;;;;;19.02;39.83;96077.78;5002710;28;20169;-60
2021/06/09 07:44:37;;;;;;;14.05;9.73;;;;;;;19.35;39.32;96075.03;5000550;28;20121;-60
2021/06/09 07:47:05;;;;;;;14.88;9.65;;;;;;;19.20;39.87;96073.47;5017660;28;20110;-61
2021/06/09 07:49:30;;;;;;;10.88;9.00;;;;;;;18.53;40.08;96072.94;4986256;28;20093;-61
2021/06/09 07:51:56;;;;;;;13.38;9.57;;;;;;;18.58;40.20;96077.72;5001328;28;20605;-61
2021/06/09 07:54:21;;;;;;;12.80;10.52;;;;;;;18.87;39.22;96082.69;4991283;28;20114;-60
2021/06/09 07:56:47;;;;;;;12.43;10.18;;;;;;;19.04;39.52;96078.38;5016749;28;20140;-60
2021/06/09 07:59:13;;;;;;;11.02;9.30;;;;;;;18.88;41.55;96082.47;4985070;28;20466;-60
2021/06/09 08:01:43;;;;;;;11.93;9.50;;;;;;;19.45;39.55;96076.16;4982625;28;20094;-61
2021/06/09 08:04:12;;;;;;;14.52;9.60;;;;;;;19.25;39.28;96084.44;4998764;28;20105;-61
2021/06/09 08:06:38;;;;;;;12.95;9.40;;;;;;;18.97;40.62;96074.94;5003895;28;20109;-61
2021/06/09 08:09:04;;;;;;;12.35;9.30;;;;;;;19.04;40.10;96085.66;5001933;28;20102;-61
2021/06/09 08:11:30;;;;;;;13.10;9.70;;;;;;;18.94;38.91;96078.06;5004156;28;20095;-61
2021/06/09 08:13:56;;;;;;;11.85;8.88;;;;;;;19.22;38.27;96076.78;5008497;28;20098;-61
2021/06/09 08:16:21;;;;;;;10.95;8.93;;;;;;;18.85;38.20;96079.38;5006656;28;20102;-62
2021/06/09 08:18:47;;;;;;;11.45;9.40;;;;;;;18.45;40.58;96086.69;5008124;28;20117;-60
2021/06/09 08:21:14;;;;;;;12.10;10.27;;;;;;;18.64;38.70;96084.94;5006937;28;20081;-62
2021/06/09 08:23:41;;;;;;;11.63;9.48;;;;;;;18.98;38.38;96086.53;5005194;28;20136;-62
2021/06/09 08:26:07;;;;;;;12.40;9.30;;;;;;;19.13;38.27;96072.69;5004730;28;20477;-62
2021/06/09 08:28:35;;;;;;;12.85;10.05;;;;;;;19.12;37.99;96076.47;5008641;28;20201;-62
2021/06/09 08:31:01;;;;;;;10.90;8.70;;;;;;;19.74;38.21;96074.81;5007999;28;20635;-63
2021/06/09 08:33:26;;;;;;;16.83;9.30;;;;;;;19.37;40.47;96075.63;5009040;28;20082;-62
2021/06/09 08:35:52;;;;;;;12.63;9.45;;;;;;;19.70;37.95;96069.03;5008766;28;20469;-77
2021/06/09 08:38:17;;;;;;;11.35;9.20;;;;;;;20.00;38.87;96067.47;4990793;28;20094;-77
2021/06/09 08:40:43;;;;;;;12.98;9.23;;;;;;;19.85;37.69;96072.16;5008812;28;20548;-76
2021/06/09 08:43:09;;;;;;;12.00;9.30;;;;;;;19.79;38.47;96075.78;5012844;28;20110;-77
2021/06/09 08:45:35;;;;;;;14.40;10.13;;;;;;;19.72;38.97;96083.97;5029146;28;20110;-77
2021/06/09 08:48:00;;;;;;;12.07;9.25;;;;;;;20.02;39.93;96082.38;5012584;28;20129;-77
2021/06/09 08:50:26;;;;;;;11.77;8.73;;;;;;;19.64;38.53;96075.34;4993916;28;20242;-77
2021/06/09 08:52:52;;;;;;;10.88;8.15;;;;;;;19.39;38.34;96084.31;4995301;28;20085;-76
2021/06/09 08:55:18;;;;;;;12.70;9.30;;;;;;;19.17;39.92;96084.72;4988338;28;20168;-77
2021/06/09 08:57:43;;;;;;;13.93;9.45;;;;;;;19.10;39.63;96075.88;5009917;28;20579;-76
2021/06/09 09:00:10;;;;;;;12.23;10.07;;;;;;;19.04;39.24;96081.09;5026736;28;20136;-77
2021/06/09 09:02:35;;;;;;;12.48;9.90;;;;;;;19.10;40.32;96083.97;5011768;28;20121;-77
2021/06/09 09:05:01;;;;;;;11.63;9.30;;;;;;;19.64;38.44;96086.16;4990262;28;20555;-77
2021/06/09 09:07:28;;;;;;;14.35;9.88;;;;;;;19.93;38.75;96084.56;4990360;28;20106;-77
2021/06/09 09:10:00;;;;;;;17.45;10.70;;;;;;;19.97;38.59;96085.78;5007228;28;20216;-77
2021/06/09 09:12:25;;;;;;;18.45;11.07;;;;;;;19.90;39.77;96092.28;5010213;28;20145;-77
2021/06/09 09:14:51;;;;;;;12.35;10.52;;;;;;;20.35;39.24;96085.69;4994379;28;20648;-77
2021/06/09 09:17:17;;;;;;;13.95;10.10;;;;;;;19.65;38.35;96090.50;5001495;28;20093;-77
2021/06/09 09:19:44;;;;;;;13.82;9.85;;;;;;;19.62;38.30;96093.66;5018785;28;20098;-77
2021/06/09 09:22:21;;;;;;;12.73;9.85;;;;;;;19.63;38.41;96089.88;4997167;28;20102;-77
2021/06/09 09:24:48;;;;;;;12.23;10.10;;;;;;;19.70;42.64;96099.56;5017043;28;20172;-77
2021/06/09 09:27:29;;;;;;;15.70;11.07;;;;;;;19.90;39.60;96097.69;4997686;28;20121;-77
2021/06/09 09:30:10;;;;;;;14.70;9.90;;;;;;;20.01;38.64;96102.34;4985113;28;20082;-79
2021/06/09 09:32:37;;;;;;;14.25;11.43;;;;;;;20.10;37.94;96100.19;5027008;28;20103;-77
2021/06/09 09:35:08;;;;;;;16.23;11.27;;;;;;;21.03;38.33;96101.75;5001451;28;20614;-77
2021/06/09 09:37:33;;;;;;;14.68;10.57;;;;;;;21.23;36.96;96090.59;4997624;28;20084;-78
2021/06/09 09:40:17;;;;;;;13.10;11.38;;;;;;;21.94;35.62;96098.91;4992681;28;20189;-78
2021/06/09 09:42:49;;;;;;;14.68;9.60;;;;;;;22.26;35.36;96109.28;5015979;28;20110;-71
2021/06/09 09:45:27;;;;;;;13.70;10.50;;;;;;;22.93;35.58;96098.84;5003033;28;20145;-78
2021/06/09 09:48:16;;;;;;;16.20;10.82;;;;;;;21.73;34.30;96106.59;5012481;28;20098;-78
2021/06/09 09:50:53;;;;;;;15.80;10.70;;;;;;;21.75;35.38;96107.16;5017568;28;20167;-77
2021/06/09 09:53:22;;;;;;;;;;;;;;;22.05;37.01;96106.19;5017199;28;20085;-78
2021/06/09 09:56:08;;;;;;;12.05;10.38;;;;;;;22.02;35.85;96101.25;5012602;28;19993;-77
2021/06/09 09:58:39;;;;;;;17.52;10.65;;;;;;;22.44;35.23;96107.47;4996677;28;20566;-77
2021/06/09 10:01:09;;;;;;;13.85;10.45;;;;;;;22.89;34.48;96103.13;4995718;28;20077;-78
2021/06/09 10:03:38;;;;;;;12.68;10.23;;;;;;;23.40;32.51;96097.69;4998245;28;20471;-78
2021/06/09 10:06:31;;;;;;;11.98;10.15;;;;;;;23.78;31.68;96111.56;5000011;28;20070;-78
2021/06/09 10:08:59;;;;;;;12.32;9.55;;;;;;;23.08;32.83;96106.41;5006575;28;20114;-79
2021/06/09 10:11:25;;;;;;;10.80;9.35;;;;;;;22.62;34.08;96120.03;4997182;28;20091;-78
2021/06/09 10:13:51;;;;;;;11.65;9.48;;;;;;;22.44;34.64;96116.44;5013600;28;20141;-77
2021/06/09 10:16:33;;;;;;;11.23;9.45;;;;;;;22.74;33.17;96114.53;4997060;28;20094;-78
2021/06/09 10:19:07;;;;;;;13.27;9.85;;;;;;;23.08;32.85;96116.47;5011270;28;20160;-79
2021/06/09 10:21:34;;;;;;;12.18;9.00;;;;;;;23.20;32.24;96114.50;5014115;28;20089;-78
2021/06/09 10:24:09;;;;;;;10.80;8.82;;;;;;;23.81;31.34;96107.50;5011144;28;20103;-77
2021/06/09 10:26:35;;;;;;;11.57;9.50;;;;;;;24.06;32.45;96112.44;4995343;28;20105;-78
2021/06/09 10:29:04;;;;;;;9.02;7.45;;;;;;;24.49;30.84;96111.00;5004568;28;20122;-78
2021/06/09 10:31:35;;;;;;;12.63;7.80;;;;;;;24.65;30.42;96117.44;5010098;28;20117;-79
2021/06/09 10:34:01;;;;;;;10.82;8.13;;;;;;;24.99;30.44;96119.13;5027709;28;20086;-78
2021/06/09 10:36:26;;;;;;;11.35;8.02;;;;;;;24.78;30.84;96114.28;5011977;28;20098;-78
2021/06/09 10:38:52;;;;;;;11.15;8.82;;;;;;;24.37;31.29;96117.41;5012276;28;20156;-77
2021/06/09 10:41:18;;;;;;;10.55;8.52;;;;;;;23.74;32.51;96120.44;5013182;28;20236;-77
2021/06/09 10:43:45;;;;;;;10.43;8.80;;;;;;;23.51;33.28;96108.69;4997078;28;20117;-77
2021/06/09 10:46:11;;;;;;;11.13;8.75;;;;;;;24.01;31.07;96109.66;5010101;28;20090;-77
2021/06/09 10:48:36;;;;;;;10.40;9.02;;;;;;;24.38;29.77;96101.94;4993749;28;20090;-78
2021/06/09 10:51:02;;;;;;;9.18;7.10;;;;;;;24.15;32.07;96107.38;4993849;28;20221;-78
2021/06/09 10:53:28;;;;;;;11.13;7.88;;;;;;;23.38;33.11;96112.56;5012198;28;20583;-78
2021/06/09 10:55:53;;;;;;;13.35;8.77;;;;;;;21.81;34.29;96117.06;4995692;28;20102;-78
2021/06/09 10:58:18;;;;;;;10.10;8.18;;;;;;;22.26;34.62;96118.25;4995146;28;20089;-77
2021/06/09 11:00:44;;;;;;;14.40;7.70;;;;;;;22.11;33.97;96110.66;5011851;28;20074;-77
2021/06/09 11:03:10;;;;;;;9.13;8.05;;;;;;;22.19;32.98;96109.44;5009982;28;20110;-77
2021/06/09 11:05:35;;;;;;;10.70;8.48;;;;;;;22.47;35.17;96113.22;4995742;28;20106;-77
2021/06/09 11:08:02;;;;;;;9.95;8.07;;;;;;;23.05;33.57;96101.50;5001856;28;20597;-77
2021/06/09 11:10:27;;;;;;;12.02;8.05;;;;;;;23.20;33.26;96100.09;4995734;28;20125;-78
2021/06/09 11:12:52;;;;;;;8.83;7.27;;;;;;;23.46;32.42;96095.03;5011871;28;20110;-78
2021/06/09 11:15:32;;;;;;;9.35;7.32;;;;;;;24.65;29.49;96092.94;4994768;28;20121;-78
2021/06/09 11:17:57;;;;;;;9.00;7.28;;;;;;;25.04;29.70;96098.22;4982430;28;20085;-78
2021/06/09 11:20:33;;;;;;;8.68;7.28;;;;;;;24.12;32.07;96104.31;4995309;28;20106;-77
2021/06/09 11:23:05;;;;;;;8.23;6.95;;;;;;;23.38;31.08;96107.97;4983698;28;20098;-77
2021/06/09 11:25:42;;;;;;;9.95;7.07;;;;;;;23.09;32.01;96102.63;4997033;28;20161;-77
2021/06/09 11:28:08;;;;;;;8.93;6.75;;;;;;;23.04;31.87;96092.50;5015567;28;20113;-76
2021/06/09 11:30:33;;;;;;;9.38;7.38;;;;;;;22.74;32.20;96087.41;4995137;28;20102;-77
2021/06/09 11:33:07;;;;;;;8.13;6.80;;;;;;;23.97;29.45;96089.50;5013057;28;20507;-77
2021/06/09 11:35:45;;;;;;;8.70;6.40;;;;;;;23.90;32.91;96092.38;5010584;28;20376;-78